NEW weather

Lakefront Airport
New Orleans, Louisiana, United States

Public forecast

Using degrees Fahrenheit for public forecast. Weather courtesy of forecast.io.

Current aviation weather report (METAR) for Lakefront Airport

Retrieved 2019/10/18 09:53 UTC (22 minutes ago):

KNEW 180953Z AUTO 07015KT 10SM FEW080 BKN110 18/13 A2987 RMK AO2 SLP108 T01830128

Aviation forecast (TAF) for Lakefront Airport

Retrieved 2019/10/18 06:22 UTC (4 hours ago):

TAF KNEW 180520Z 1806/1906 06013G21KT P6SM OVC070 FM181000 07017KT P6SM VCSH OVC070 FM181700 04019G28KT P6SM VCSH OVC045 FM182300 02022G32KT P6SM VCSH BKN025 FM190300 36016G24KT P6SM BKN035